sensor_id;sensor_type;location;lat;lon;timestamp;temperature;humidity
20479;DHT22;10398;52.490;13.434;2022-09-24T00:01:15;13.20;99.90
20479;DHT22;10398;52.490;13.434;2022-09-24T00:03:43;13.20;99.90
20479;DHT22;10398;52.490;13.434;2022-09-24T00:06:12;13.20;99.90
20479;DHT22;10398;52.490;13.434;2022-09-24T00:08:43;13.20;99.90
20479;DHT22;10398;52.490;13.434;2022-09-24T00:11:09;13.10;99.90
20479;DHT22;10398;52.490;13.434;2022-09-24T00:13:37;13.10;99.90
20479;DHT22;10398;52.490;13.434;2022-09-24T00:16:06;13.10;99.90
20479;DHT22;10398;52.490;13.434;2022-09-24T00:18:32;13.10;99.90
20479;DHT22;10398;52.490;13.434;2022-09-24T00:20:58;13.10;99.90
20479;DHT22;10398;52.490;13.434;2022-09-24T00:23:24;13.10;99.90
20479;DHT22;10398;52.490;13.434;2022-09-24T00:25:50;13.10;99.90
20479;DHT22;10398;52.490;13.434;2022-09-24T00:28:34;13.00;99.90
20479;DHT22;10398;52.490;13.434;2022-09-24T00:31:06;13.00;99.90
20479;DHT22;10398;52.490;13.434;2022-09-24T00:33:33;13.00;99.90
20479;DHT22;10398;52.490;13.434;2022-09-24T00:36:01;13.00;99.90
20479;DHT22;10398;52.490;13.434;2022-09-24T00:38:29;13.00;99.90
20479;DHT22;10398;52.490;13.434;2022-09-24T00:40:55;13.00;99.90
20479;DHT22;10398;52.490;13.434;2022-09-24T00:43:35;12.90;99.90
20479;DHT22;10398;52.490;13.434;2022-09-24T00:46:29;12.90;99.90
20479;DHT22;10398;52.490;13.434;2022-09-24T00:49:09;12.90;99.90
20479;DHT22;10398;52.490;13.434;2022-09-24T00:51:36;12.90;99.90
20479;DHT22;10398;52.490;13.434;2022-09-24T00:54:08;12.90;99.90
20479;DHT22;10398;52.490;13.434;2022-09-24T00:56:37;12.90;99.90
20479;DHT22;10398;52.490;13.434;2022-09-24T00:59:06;12.90;99.90
20479;DHT22;10398;52.490;13.434;2022-09-24T01:01:33;12.90;99.90
20479;DHT22;10398;52.490;13.434;2022-09-24T01:04:00;12.90;99.90
20479;DHT22;10398;52.490;13.434;2022-09-24T01:06:27;12.80;99.90
20479;DHT22;10398;52.490;13.434;2022-09-24T01:08:54;12.80;99.90
20479;DHT22;10398;52.490;13.434;2022-09-24T01:14:33;12.80;99.90
20479;DHT22;10398;52.490;13.434;2022-09-24T01:25:19;12.70;99.90
20479;DHT22;10398;52.490;13.434;2022-09-24T01:30:48;12.70;99.90
20479;DHT22;10398;52.490;13.434;2022-09-24T01:33:19;12.70;99.90
20479;DHT22;10398;52.490;13.434;2022-09-24T01:35:58;12.70;99.90
20479;DHT22;10398;52.490;13.434;2022-09-24T01:38:31;12.70;99.90
20479;DHT22;10398;52.490;13.434;2022-09-24T01:41:01;12.70;99.90
20479;DHT22;10398;52.490;13.434;2022-09-24T01:43:28;12.60;99.90
20479;DHT22;10398;52.490;13.434;2022-09-24T01:45:55;12.60;99.90
20479;DHT22;10398;52.490;13.434;2022-09-24T01:48:23;12.60;99.90
20479;DHT22;10398;52.490;13.434;2022-09-24T01:51:07;12.60;99.90
20479;DHT22;10398;52.490;13.434;2022-09-24T01:53:56;12.70;99.90
20479;DHT22;10398;52.490;13.434;2022-09-24T01:56:26;12.70;99.90
20479;DHT22;10398;52.490;13.434;2022-09-24T01:59:00;12.60;99.90
20479;DHT22;10398;52.490;13.434;2022-09-24T02:01:33;12.60;99.90
20479;DHT22;10398;52.490;13.434;2022-09-24T02:04:09;12.60;99.90
20479;DHT22;10398;52.490;13.434;2022-09-24T02:06:41;12.60;99.90
20479;DHT22;10398;52.490;13.434;2022-09-24T02:09:46;12.60;99.90
20479;DHT22;10398;52.490;13.434;2022-09-24T02:14:50;12.60;99.90
20479;DHT22;10398;52.490;13.434;2022-09-24T02:17:17;12.60;99.90
20479;DHT22;10398;52.490;13.434;2022-09-24T02:19:43;12.60;99.90
20479;DHT22;10398;52.490;13.434;2022-09-24T02:22:11;12.50;99.90
20479;DHT22;10398;52.490;13.434;2022-09-24T02:27:04;12.60;99.90
20479;DHT22;10398;52.490;13.434;2022-09-24T02:29:29;12.50;99.90
20479;DHT22;10398;52.490;13.434;2022-09-24T02:31:56;12.50;99.90
20479;DHT22;10398;52.490;13.434;2022-09-24T02:34:30;12.50;99.90
20479;DHT22;10398;52.490;13.434;2022-09-24T02:37:03;12.40;99.90
20479;DHT22;10398;52.490;13.434;2022-09-24T02:39:29;12.40;99.90
20479;DHT22;10398;52.490;13.434;2022-09-24T02:41:55;12.40;99.90
20479;DHT22;10398;52.490;13.434;2022-09-24T02:44:22;12.40;99.90
20479;DHT22;10398;52.490;13.434;2022-09-24T02:46:48;12.40;99.90
20479;DHT22;10398;52.490;13.434;2022-09-24T02:49:15;12.40;99.90
20479;DHT22;10398;52.490;13.434;2022-09-24T02:51:41;12.40;99.90
20479;DHT22;10398;52.490;13.434;2022-09-24T02:54:08;12.30;99.90
20479;DHT22;10398;52.490;13.434;2022-09-24T02:56:34;12.40;99.90
20479;DHT22;10398;52.490;13.434;2022-09-24T02:59:00;12.40;99.90
20479;DHT22;10398;52.490;13.434;2022-09-24T03:01:27;12.40;99.90
20479;DHT22;10398;52.490;13.434;2022-09-24T03:03:53;12.40;99.90
20479;DHT22;10398;52.490;13.434;2022-09-24T03:06:19;12.30;99.90
20479;DHT22;10398;52.490;13.434;2022-09-24T03:08:45;12.30;99.90
20479;DHT22;10398;52.490;13.434;2022-09-24T03:11:11;12.30;99.90
20479;DHT22;10398;52.490;13.434;2022-09-24T03:13:38;12.30;99.90
20479;DHT22;10398;52.490;13.434;2022-09-24T03:16:05;12.30;99.90
20479;DHT22;10398;52.490;13.434;2022-09-24T03:18:31;12.20;99.90
20479;DHT22;10398;52.490;13.434;2022-09-24T03:21:05;12.20;99.90
20479;DHT22;10398;52.490;13.434;2022-09-24T03:23:31;12.20;99.90
20479;DHT22;10398;52.490;13.434;2022-09-24T03:25:57;12.30;99.90
20479;DHT22;10398;52.490;13.434;2022-09-24T03:28:22;12.20;99.90
20479;DHT22;10398;52.490;13.434;2022-09-24T03:30:48;12.20;99.90
20479;DHT22;10398;52.490;13.434;2022-09-24T03:33:41;12.30;99.90
20479;DHT22;10398;52.490;13.434;2022-09-24T03:36:11;12.20;99.90
20479;DHT22;10398;52.490;13.434;2022-09-24T03:38:38;12.20;99.90
20479;DHT22;10398;52.490;13.434;2022-09-24T03:41:05;12.30;99.90
20479;DHT22;10398;52.490;13.434;2022-09-24T03:43:31;12.30;99.90
20479;DHT22;10398;52.490;13.434;2022-09-24T03:45:57;12.30;99.90
20479;DHT22;10398;52.490;13.434;2022-09-24T03:48:23;12.30;99.90
20479;DHT22;10398;52.490;13.434;2022-09-24T03:50:50;12.30;99.90
20479;DHT22;10398;52.490;13.434;2022-09-24T03:53:16;12.30;99.90
20479;DHT22;10398;52.490;13.434;2022-09-24T03:55:47;12.40;99.90
20479;DHT22;10398;52.490;13.434;2022-09-24T03:58:14;12.30;99.90
20479;DHT22;10398;52.490;13.434;2022-09-24T04:00:40;12.30;99.90
20479;DHT22;10398;52.490;13.434;2022-09-24T04:03:07;12.30;99.90
20479;DHT22;10398;52.490;13.434;2022-09-24T04:05:33;12.40;99.90
20479;DHT22;10398;52.490;13.434;2022-09-24T04:07:59;12.40;99.90
20479;DHT22;10398;52.490;13.434;2022-09-24T04:10:25;12.40;99.90
20479;DHT22;10398;52.490;13.434;2022-09-24T04:12:52;12.40;99.90
20479;DHT22;10398;52.490;13.434;2022-09-24T04:15:18;12.40;99.90
20479;DHT22;10398;52.490;13.434;2022-09-24T04:17:51;12.30;99.90
20479;DHT22;10398;52.490;13.434;2022-09-24T04:20:18;12.30;99.90
20479;DHT22;10398;52.490;13.434;2022-09-24T04:22:51;12.30;99.90
20479;DHT22;10398;52.490;13.434;2022-09-24T04:25:18;12.30;99.90
20479;DHT22;10398;52.490;13.434;2022-09-24T04:27:44;12.30;99.90
20479;DHT22;10398;52.490;13.434;2022-09-24T04:30:11;12.30;99.90
20479;DHT22;10398;52.490;13.434;2022-09-24T04:32:38;12.30;99.90
20479;DHT22;10398;52.490;13.434;2022-09-24T04:35:04;12.30;99.90
20479;DHT22;10398;52.490;13.434;2022-09-24T04:37:30;12.30;99.90
20479;DHT22;10398;52.490;13.434;2022-09-24T04:39:56;12.20;99.90
20479;DHT22;10398;52.490;13.434;2022-09-24T04:42:21;12.20;99.90
20479;DHT22;10398;52.490;13.434;2022-09-24T04:44:47;12.20;99.90
20479;DHT22;10398;52.490;13.434;2022-09-24T04:47:13;12.20;99.90
20479;DHT22;10398;52.490;13.434;2022-09-24T04:49:42;12.20;99.90
20479;DHT22;10398;52.490;13.434;2022-09-24T04:52:13;12.20;99.90
20479;DHT22;10398;52.490;13.434;2022-09-24T04:54:40;12.20;99.90
20479;DHT22;10398;52.490;13.434;2022-09-24T04:57:15;12.20;99.90
20479;DHT22;10398;52.490;13.434;2022-09-24T04:59:41;12.30;99.90
20479;DHT22;10398;52.490;13.434;2022-09-24T05:02:07;12.20;99.90
20479;DHT22;10398;52.490;13.434;2022-09-24T05:04:36;12.20;99.90
20479;DHT22;10398;52.490;13.434;2022-09-24T05:07:02;12.20;99.90
20479;DHT22;10398;52.490;13.434;2022-09-24T05:09:29;12.30;99.90
20479;DHT22;10398;52.490;13.434;2022-09-24T05:11:56;12.20;99.90
20479;DHT22;10398;52.490;13.434;2022-09-24T05:14:22;12.30;99.90
20479;DHT22;10398;52.490;13.434;2022-09-24T05:16:47;12.30;99.90
20479;DHT22;10398;52.490;13.434;2022-09-24T05:19:13;12.30;99.90
20479;DHT22;10398;52.490;13.434;2022-09-24T05:21:38;12.40;99.90
20479;DHT22;10398;52.490;13.434;2022-09-24T05:24:04;12.30;99.90
20479;DHT22;10398;52.490;13.434;2022-09-24T05:26:29;12.40;99.90
20479;DHT22;10398;52.490;13.434;2022-09-24T05:29:21;12.30;99.90
20479;DHT22;10398;52.490;13.434;2022-09-24T05:31:47;12.30;99.90
20479;DHT22;10398;52.490;13.434;2022-09-24T05:34:12;12.40;99.90
20479;DHT22;10398;52.490;13.434;2022-09-24T05:36:39;12.40;99.90
20479;DHT22;10398;52.490;13.434;2022-09-24T05:39:07;12.40;99.90
20479;DHT22;10398;52.490;13.434;2022-09-24T05:41:33;12.40;99.90
20479;DHT22;10398;52.490;13.434;2022-09-24T05:43:59;12.40;99.90
20479;DHT22;10398;52.490;13.434;2022-09-24T05:46:24;12.40;99.90
20479;DHT22;10398;52.490;13.434;2022-09-24T05:48:50;12.40;99.90
20479;DHT22;10398;52.490;13.434;2022-09-24T05:51:16;12.40;99.90
20479;DHT22;10398;52.490;13.434;2022-09-24T05:53:42;12.40;99.90
20479;DHT22;10398;52.490;13.434;2022-09-24T05:56:07;12.40;99.90
20479;DHT22;10398;52.490;13.434;2022-09-24T05:58:35;12.40;99.90
20479;DHT22;10398;52.490;13.434;2022-09-24T06:01:00;12.40;99.90
20479;DHT22;10398;52.490;13.434;2022-09-24T06:03:26;12.50;99.90
20479;DHT22;10398;52.490;13.434;2022-09-24T06:05:54;12.40;99.90
20479;DHT22;10398;52.490;13.434;2022-09-24T06:08:21;12.50;99.90
20479;DHT22;10398;52.490;13.434;2022-09-24T06:10:47;12.50;99.90
20479;DHT22;10398;52.490;13.434;2022-09-24T06:13:16;12.40;99.90
20479;DHT22;10398;52.490;13.434;2022-09-24T06:15:42;12.40;99.90
20479;DHT22;10398;52.490;13.434;2022-09-24T06:18:09;12.40;99.90
20479;DHT22;10398;52.490;13.434;2022-09-24T06:20:35;12.40;99.90
20479;DHT22;10398;52.490;13.434;2022-09-24T06:23:01;12.50;99.90
20479;DHT22;10398;52.490;13.434;2022-09-24T06:25:27;12.50;99.90
20479;DHT22;10398;52.490;13.434;2022-09-24T06:27:58;12.50;99.90
20479;DHT22;10398;52.490;13.434;2022-09-24T06:30:37;12.50;99.90
20479;DHT22;10398;52.490;13.434;2022-09-24T06:33:12;12.50;99.90
20479;DHT22;10398;52.490;13.434;2022-09-24T06:35:43;12.50;99.90
20479;DHT22;10398;52.490;13.434;2022-09-24T06:38:13;12.50;99.90
20479;DHT22;10398;52.490;13.434;2022-09-24T06:40:41;12.50;99.90
20479;DHT22;10398;52.490;13.434;2022-09-24T06:43:08;12.50;99.90
20479;DHT22;10398;52.490;13.434;2022-09-24T06:45:35;12.50;99.90
20479;DHT22;10398;52.490;13.434;2022-09-24T06:48:02;12.60;99.90
20479;DHT22;10398;52.490;13.434;2022-09-24T06:50:29;12.60;99.90
20479;DHT22;10398;52.490;13.434;2022-09-24T06:52:56;12.60;99.90
20479;DHT22;10398;52.490;13.434;2022-09-24T06:55:21;12.60;99.90
20479;DHT22;10398;52.490;13.434;2022-09-24T06:57:47;12.70;99.90
20479;DHT22;10398;52.490;13.434;2022-09-24T07:00:14;12.60;99.90
20479;DHT22;10398;52.490;13.434;2022-09-24T07:02:40;12.60;99.90
20479;DHT22;10398;52.490;13.434;2022-09-24T07:05:07;12.60;99.90
20479;DHT22;10398;52.490;13.434;2022-09-24T07:07:34;12.50;99.90
20479;DHT22;10398;52.490;13.434;2022-09-24T07:10:02;12.50;99.90
20479;DHT22;10398;52.490;13.434;2022-09-24T07:12:29;12.60;99.90
20479;DHT22;10398;52.490;13.434;2022-09-24T07:14:56;12.50;99.90
20479;DHT22;10398;52.490;13.434;2022-09-24T07:17:22;12.60;99.90
20479;DHT22;10398;52.490;13.434;2022-09-24T07:19:47;12.60;99.90
20479;DHT22;10398;52.490;13.434;2022-09-24T07:22:13;12.60;99.90
20479;DHT22;10398;52.490;13.434;2022-09-24T07:24:39;12.60;99.90
20479;DHT22;10398;52.490;13.434;2022-09-24T07:27:05;12.60;99.90
20479;DHT22;10398;52.490;13.434;2022-09-24T07:29:31;12.60;99.90
20479;DHT22;10398;52.490;13.434;2022-09-24T07:31:57;12.60;99.90
20479;DHT22;10398;52.490;13.434;2022-09-24T07:34:22;12.70;99.90
20479;DHT22;10398;52.490;13.434;2022-09-24T07:36:49;12.70;99.90
20479;DHT22;10398;52.490;13.434;2022-09-24T07:39:15;12.80;99.90
20479;DHT22;10398;52.490;13.434;2022-09-24T07:41:41;12.80;99.90
20479;DHT22;10398;52.490;13.434;2022-09-24T07:44:09;12.80;99.90
20479;DHT22;10398;52.490;13.434;2022-09-24T07:46:35;12.80;99.90
20479;DHT22;10398;52.490;13.434;2022-09-24T07:49:01;12.90;99.90
20479;DHT22;10398;52.490;13.434;2022-09-24T07:51:27;12.90;99.90
20479;DHT22;10398;52.490;13.434;2022-09-24T07:53:56;13.00;99.90
20479;DHT22;10398;52.490;13.434;2022-09-24T07:56:23;13.00;99.90
20479;DHT22;10398;52.490;13.434;2022-09-24T07:58:50;13.10;99.90
20479;DHT22;10398;52.490;13.434;2022-09-24T08:01:17;13.10;99.90
20479;DHT22;10398;52.490;13.434;2022-09-24T08:03:43;13.10;99.90
20479;DHT22;10398;52.490;13.434;2022-09-24T08:06:09;13.10;99.90
20479;DHT22;10398;52.490;13.434;2022-09-24T08:08:35;13.10;99.90
20479;DHT22;10398;52.490;13.434;2022-09-24T08:11:05;13.10;99.90
20479;DHT22;10398;52.490;13.434;2022-09-24T08:13:31;13.10;99.90
20479;DHT22;10398;52.490;13.434;2022-09-24T08:15:58;13.10;99.90
20479;DHT22;10398;52.490;13.434;2022-09-24T08:18:24;13.10;99.90
20479;DHT22;10398;52.490;13.434;2022-09-24T08:20:50;13.10;99.90
20479;DHT22;10398;52.490;13.434;2022-09-24T08:23:15;13.20;99.90
20479;DHT22;10398;52.490;13.434;2022-09-24T08:25:41;13.20;99.90
20479;DHT22;10398;52.490;13.434;2022-09-24T08:28:07;13.20;99.90
20479;DHT22;10398;52.490;13.434;2022-09-24T08:30:33;13.30;99.90
20479;DHT22;10398;52.490;13.434;2022-09-24T08:32:59;13.30;99.90
20479;DHT22;10398;52.490;13.434;2022-09-24T08:35:25;13.40;99.90
20479;DHT22;10398;52.490;13.434;2022-09-24T08:37:54;13.40;99.90
20479;DHT22;10398;52.490;13.434;2022-09-24T08:40:25;13.40;99.90
20479;DHT22;10398;52.490;13.434;2022-09-24T08:43:30;13.50;99.90
20479;DHT22;10398;52.490;13.434;2022-09-24T08:46:01;13.50;99.90
20479;DHT22;10398;52.490;13.434;2022-09-24T08:48:50;13.60;99.90
20479;DHT22;10398;52.490;13.434;2022-09-24T08:51:19;13.60;99.90
20479;DHT22;10398;52.490;13.434;2022-09-24T08:53:56;13.60;99.90
20479;DHT22;10398;52.490;13.434;2022-09-24T08:56:26;13.70;99.90
20479;DHT22;10398;52.490;13.434;2022-09-24T09:02:04;13.80;99.90
20479;DHT22;10398;52.490;13.434;2022-09-24T09:05:07;13.90;99.90
20479;DHT22;10398;52.490;13.434;2022-09-24T09:08:12;13.90;99.90
20479;DHT22;10398;52.490;13.434;2022-09-24T09:10:40;13.90;99.90
20479;DHT22;10398;52.490;13.434;2022-09-24T09:15:43;14.00;99.90
20479;DHT22;10398;52.490;13.434;2022-09-24T09:18:17;14.00;99.90
20479;DHT22;10398;52.490;13.434;2022-09-24T09:20:48;14.00;99.90
20479;DHT22;10398;52.490;13.434;2022-09-24T09:23:20;14.10;99.90
20479;DHT22;10398;52.490;13.434;2022-09-24T09:26:07;14.10;99.90
20479;DHT22;10398;52.490;13.434;2022-09-24T09:28:34;14.20;99.90
20479;DHT22;10398;52.490;13.434;2022-09-24T09:42:03;14.40;99.90
20479;DHT22;10398;52.490;13.434;2022-09-24T09:44:38;14.50;99.90
20479;DHT22;10398;52.490;13.434;2022-09-24T09:50:50;14.60;99.90
20479;DHT22;10398;52.490;13.434;2022-09-24T09:53:27;14.60;99.90
20479;DHT22;10398;52.490;13.434;2022-09-24T09:56:01;14.60;99.90
20479;DHT22;10398;52.490;13.434;2022-09-24T09:58:30;14.60;99.90
20479;DHT22;10398;52.490;13.434;2022-09-24T10:01:12;14.60;99.90
20479;DHT22;10398;52.490;13.434;2022-09-24T10:06:28;14.60;99.90
20479;DHT22;10398;52.490;13.434;2022-09-24T10:09:06;14.70;99.90
20479;DHT22;10398;52.490;13.434;2022-09-24T10:11:32;14.70;99.90
20479;DHT22;10398;52.490;13.434;2022-09-24T10:14:02;14.80;99.90
20479;DHT22;10398;52.490;13.434;2022-09-24T10:16:39;14.90;99.90
20479;DHT22;10398;52.490;13.434;2022-09-24T10:19:29;14.90;99.90
20479;DHT22;10398;52.490;13.434;2022-09-24T10:21:57;15.00;99.90
20479;DHT22;10398;52.490;13.434;2022-09-24T10:24:31;15.00;99.90
20479;DHT22;10398;52.490;13.434;2022-09-24T10:26:58;15.00;99.90
20479;DHT22;10398;52.490;13.434;2022-09-24T10:29:29;15.10;99.90
20479;DHT22;10398;52.490;13.434;2022-09-24T10:32:20;15.00;99.90
20479;DHT22;10398;52.490;13.434;2022-09-24T10:34:58;15.10;99.90
20479;DHT22;10398;52.490;13.434;2022-09-24T10:37:25;15.10;99.90
20479;DHT22;10398;52.490;13.434;2022-09-24T10:40:00;15.20;99.90
20479;DHT22;10398;52.490;13.434;2022-09-24T10:42:30;15.20;99.90
20479;DHT22;10398;52.490;13.434;2022-09-24T10:44:58;15.20;99.90
20479;DHT22;10398;52.490;13.434;2022-09-24T10:47:45;15.20;99.90
20479;DHT22;10398;52.490;13.434;2022-09-24T10:53:10;15.30;99.90
20479;DHT22;10398;52.490;13.434;2022-09-24T11:01:10;15.40;99.90
20479;DHT22;10398;52.490;13.434;2022-09-24T11:03:52;15.40;99.90
20479;DHT22;10398;52.490;13.434;2022-09-24T11:12:19;15.60;99.90
20479;DHT22;10398;52.490;13.434;2022-09-24T11:17:36;15.70;99.90
20479;DHT22;10398;52.490;13.434;2022-09-24T11:32:17;16.00;99.90
20479;DHT22;10398;52.490;13.434;2022-09-24T11:45:55;16.20;99.90
20479;DHT22;10398;52.490;13.434;2022-09-24T11:56:32;16.20;99.90
20479;DHT22;10398;52.490;13.434;2022-09-24T11:59:16;16.20;99.90
20479;DHT22;10398;52.490;13.434;2022-09-24T12:01:55;16.20;99.90
20479;DHT22;10398;52.490;13.434;2022-09-24T12:04:40;16.30;99.90
20479;DHT22;10398;52.490;13.434;2022-09-24T12:07:16;16.30;99.90
20479;DHT22;10398;52.490;13.434;2022-09-24T12:10:14;16.30;99.90
20479;DHT22;10398;52.490;13.434;2022-09-24T12:12:43;16.40;99.90
20479;DHT22;10398;52.490;13.434;2022-09-24T12:15:24;16.40;99.90
20479;DHT22;10398;52.490;13.434;2022-09-24T12:17:56;16.40;99.90
20479;DHT22;10398;52.490;13.434;2022-09-24T12:20:28;16.40;99.90
20479;DHT22;10398;52.490;13.434;2022-09-24T12:23:04;16.40;99.90
20479;DHT22;10398;52.490;13.434;2022-09-24T12:25:44;16.40;99.90
20479;DHT22;10398;52.490;13.434;2022-09-24T12:28:13;16.50;99.90
20479;DHT22;10398;52.490;13.434;2022-09-24T12:31:01;16.50;99.90
20479;DHT22;10398;52.490;13.434;2022-09-24T12:33:56;16.60;99.90
20479;DHT22;10398;52.490;13.434;2022-09-24T12:39:05;16.60;99.90
20479;DHT22;10398;52.490;13.434;2022-09-24T12:41:37;16.60;99.90
20479;DHT22;10398;52.490;13.434;2022-09-24T12:46:52;16.60;99.90
20479;DHT22;10398;52.490;13.434;2022-09-24T12:51:58;16.60;99.90
20479;DHT22;10398;52.490;13.434;2022-09-24T12:54:31;16.60;99.90
20479;DHT22;10398;52.490;13.434;2022-09-24T12:57:08;16.60;99.90
20479;DHT22;10398;52.490;13.434;2022-09-24T13:02:44;16.50;99.90
20479;DHT22;10398;52.490;13.434;2022-09-24T13:10:28;16.50;99.90
20479;DHT22;10398;52.490;13.434;2022-09-24T13:12:55;16.60;99.90
20479;DHT22;10398;52.490;13.434;2022-09-24T13:15:38;16.60;99.90
20479;DHT22;10398;52.490;13.434;2022-09-24T13:20:38;16.60;99.90
20479;DHT22;10398;52.490;13.434;2022-09-24T13:23:29;16.70;99.90
20479;DHT22;10398;52.490;13.434;2022-09-24T13:26:05;16.70;99.90
20479;DHT22;10398;52.490;13.434;2022-09-24T13:33:49;16.80;99.90
20479;DHT22;10398;52.490;13.434;2022-09-24T13:36:24;16.80;99.90
20479;DHT22;10398;52.490;13.434;2022-09-24T13:41:29;16.90;99.90
20479;DHT22;10398;52.490;13.434;2022-09-24T13:44:06;16.90;99.90
20479;DHT22;10398;52.490;13.434;2022-09-24T13:46:40;17.00;99.90
20479;DHT22;10398;52.490;13.434;2022-09-24T13:49:13;16.90;99.90
20479;DHT22;10398;52.490;13.434;2022-09-24T13:51:44;17.00;99.90
20479;DHT22;10398;52.490;13.434;2022-09-24T13:54:13;17.00;99.90
20479;DHT22;10398;52.490;13.434;2022-09-24T13:56:41;17.00;99.90
20479;DHT22;10398;52.490;13.434;2022-09-24T13:59:11;17.00;99.90
20479;DHT22;10398;52.490;13.434;2022-09-24T14:01:39;17.10;99.90
20479;DHT22;10398;52.490;13.434;2022-09-24T14:04:14;17.10;99.90
20479;DHT22;10398;52.490;13.434;2022-09-24T14:06:47;17.10;99.90
20479;DHT22;10398;52.490;13.434;2022-09-24T14:11:52;17.10;99.90
20479;DHT22;10398;52.490;13.434;2022-09-24T14:14:19;17.20;99.90
20479;DHT22;10398;52.490;13.434;2022-09-24T14:16:46;17.20;99.90
20479;DHT22;10398;52.490;13.434;2022-09-24T14:19:14;17.10;99.90
20479;DHT22;10398;52.490;13.434;2022-09-24T14:21:52;17.10;99.90
20479;DHT22;10398;52.490;13.434;2022-09-24T14:24:26;17.10;99.90
20479;DHT22;10398;52.490;13.434;2022-09-24T14:26:58;17.10;99.90
20479;DHT22;10398;52.490;13.434;2022-09-24T14:29:37;17.10;99.90
20479;DHT22;10398;52.490;13.434;2022-09-24T14:32:05;17.20;99.90
20479;DHT22;10398;52.490;13.434;2022-09-24T14:34:37;17.10;99.90
20479;DHT22;10398;52.490;13.434;2022-09-24T14:37:11;17.10;99.90
20479;DHT22;10398;52.490;13.434;2022-09-24T14:39:42;17.10;99.90
20479;DHT22;10398;52.490;13.434;2022-09-24T14:42:12;17.10;99.90
20479;DHT22;10398;52.490;13.434;2022-09-24T14:44:44;17.10;99.90
20479;DHT22;10398;52.490;13.434;2022-09-24T14:47:39;17.00;99.90
20479;DHT22;10398;52.490;13.434;2022-09-24T14:50:26;17.00;99.90
20479;DHT22;10398;52.490;13.434;2022-09-24T14:52:56;17.00;99.90
20479;DHT22;10398;52.490;13.434;2022-09-24T14:55:35;17.00;99.90
20479;DHT22;10398;52.490;13.434;2022-09-24T14:58:01;17.00;99.90
20479;DHT22;10398;52.490;13.434;2022-09-24T15:00:33;16.90;99.90
20479;DHT22;10398;52.490;13.434;2022-09-24T15:03:10;17.00;99.90
20479;DHT22;10398;52.490;13.434;2022-09-24T15:05:37;16.90;99.90
20479;DHT22;10398;52.490;13.434;2022-09-24T15:11:00;16.90;99.90
20479;DHT22;10398;52.490;13.434;2022-09-24T15:13:33;16.90;99.90
20479;DHT22;10398;52.490;13.434;2022-09-24T15:18:32;16.90;99.90
20479;DHT22;10398;52.490;13.434;2022-09-24T15:20:59;16.90;99.90
20479;DHT22;10398;52.490;13.434;2022-09-24T15:23:25;16.80;99.90
20479;DHT22;10398;52.490;13.434;2022-09-24T15:25:50;16.80;99.90
20479;DHT22;10398;52.490;13.434;2022-09-24T15:28:16;16.80;99.90
20479;DHT22;10398;52.490;13.434;2022-09-24T15:30:42;16.80;99.90
20479;DHT22;10398;52.490;13.434;2022-09-24T15:33:12;16.80;99.90
20479;DHT22;10398;52.490;13.434;2022-09-24T15:35:38;16.70;99.90
20479;DHT22;10398;52.490;13.434;2022-09-24T15:38:17;16.70;99.90
20479;DHT22;10398;52.490;13.434;2022-09-24T15:40:43;16.70;99.90
20479;DHT22;10398;52.490;13.434;2022-09-24T15:43:23;16.70;99.90
20479;DHT22;10398;52.490;13.434;2022-09-24T15:45:50;16.70;99.90
20479;DHT22;10398;52.490;13.434;2022-09-24T15:48:16;16.70;99.90
20479;DHT22;10398;52.490;13.434;2022-09-24T15:50:44;16.70;99.90
20479;DHT22;10398;52.490;13.434;2022-09-24T15:53:21;16.70;99.90
20479;DHT22;10398;52.490;13.434;2022-09-24T15:55:54;16.70;99.90
20479;DHT22;10398;52.490;13.434;2022-09-24T15:58:21;16.70;99.90
20479;DHT22;10398;52.490;13.434;2022-09-24T16:00:47;16.60;99.90
20479;DHT22;10398;52.490;13.434;2022-09-24T16:03:30;16.60;99.90
20479;DHT22;10398;52.490;13.434;2022-09-24T16:05:56;16.60;99.90
20479;DHT22;10398;52.490;13.434;2022-09-24T16:08:23;16.60;99.90
20479;DHT22;10398;52.490;13.434;2022-09-24T16:10:49;16.60;99.90
20479;DHT22;10398;52.490;13.434;2022-09-24T16:13:15;16.60;99.90
20479;DHT22;10398;52.490;13.434;2022-09-24T16:15:41;16.60;99.90
20479;DHT22;10398;52.490;13.434;2022-09-24T16:18:11;16.60;99.90
20479;DHT22;10398;52.490;13.434;2022-09-24T16:20:38;16.50;99.90
20479;DHT22;10398;52.490;13.434;2022-09-24T16:23:05;16.50;99.90
20479;DHT22;10398;52.490;13.434;2022-09-24T16:25:31;16.50;99.90
20479;DHT22;10398;52.490;13.434;2022-09-24T16:27:57;16.50;99.90
20479;DHT22;10398;52.490;13.434;2022-09-24T16:30:23;16.50;99.90
20479;DHT22;10398;52.490;13.434;2022-09-24T16:32:49;16.50;99.90
20479;DHT22;10398;52.490;13.434;2022-09-24T16:35:16;16.40;99.90
20479;DHT22;10398;52.490;13.434;2022-09-24T16:37:41;16.40;99.90
20479;DHT22;10398;52.490;13.434;2022-09-24T16:40:08;16.40;99.90
20479;DHT22;10398;52.490;13.434;2022-09-24T16:42:34;16.40;99.90
20479;DHT22;10398;52.490;13.434;2022-09-24T16:44:59;16.40;99.90
20479;DHT22;10398;52.490;13.434;2022-09-24T16:47:25;16.30;99.90
20479;DHT22;10398;52.490;13.434;2022-09-24T16:49:50;16.30;99.90
20479;DHT22;10398;52.490;13.434;2022-09-24T16:52:16;16.30;99.90
20479;DHT22;10398;52.490;13.434;2022-09-24T16:54:42;16.30;99.90
20479;DHT22;10398;52.490;13.434;2022-09-24T16:57:08;16.20;99.90
20479;DHT22;10398;52.490;13.434;2022-09-24T16:59:33;16.10;99.90
20479;DHT22;10398;52.490;13.434;2022-09-24T17:01:59;16.10;99.90
20479;DHT22;10398;52.490;13.434;2022-09-24T17:04:25;16.20;99.90
20479;DHT22;10398;52.490;13.434;2022-09-24T17:06:57;16.10;99.90
20479;DHT22;10398;52.490;13.434;2022-09-24T17:09:23;16.20;99.90
20479;DHT22;10398;52.490;13.434;2022-09-24T17:12:08;16.10;99.90
20479;DHT22;10398;52.490;13.434;2022-09-24T17:14:36;16.10;99.90
20479;DHT22;10398;52.490;13.434;2022-09-24T17:17:02;16.10;99.90
20479;DHT22;10398;52.490;13.434;2022-09-24T17:19:27;16.10;99.90
20479;DHT22;10398;52.490;13.434;2022-09-24T17:21:53;16.10;99.90
20479;DHT22;10398;52.490;13.434;2022-09-24T17:24:19;16.10;99.90
20479;DHT22;10398;52.490;13.434;2022-09-24T17:26:45;16.00;99.90
20479;DHT22;10398;52.490;13.434;2022-09-24T17:29:11;16.00;99.90
20479;DHT22;10398;52.490;13.434;2022-09-24T17:31:37;16.00;99.90
20479;DHT22;10398;52.490;13.434;2022-09-24T17:34:05;16.00;99.90
20479;DHT22;10398;52.490;13.434;2022-09-24T17:36:34;16.00;99.90
20479;DHT22;10398;52.490;13.434;2022-09-24T17:39:00;15.90;99.90